createdAt,value
2016-06-08T00:00:24.433Z,1007.92
2016-06-08T00:01:24.453Z,1007.91
2016-06-08T00:02:24.486Z,1007.89
2016-06-08T00:03:24.519Z,1007.89
2016-06-08T00:04:24.538Z,1007.88
2016-06-08T00:05:24.572Z,1007.88
2016-06-08T00:06:24.606Z,1007.87
2016-06-08T00:07:24.624Z,1007.85
2016-06-08T00:08:24.658Z,1007.86
2016-06-08T00:09:24.692Z,1007.89
2016-06-08T00:10:24.726Z,1007.9
2016-06-08T00:11:24.744Z,1007.88
2016-06-08T00:12:24.777Z,1007.93
2016-06-08T00:13:24.796Z,1007.89
2016-06-08T00:14:24.830Z,1007.86
2016-06-08T00:15:24.865Z,1007.85
2016-06-08T00:16:24.899Z,1007.85
2016-06-08T00:17:24.916Z,1007.85
2016-06-08T00:18:24.951Z,1007.8
2016-06-08T00:19:24.984Z,1007.79
2016-06-08T00:20:25.003Z,1007.79
2016-06-08T00:21:25.037Z,1007.76
2016-06-08T00:22:25.071Z,1007.75
2016-06-08T00:23:25.104Z,1007.73
2016-06-08T00:24:25.122Z,1007.74
2016-06-08T00:25:25.142Z,1007.75
2016-06-08T00:26:25.175Z,1007.77
2016-06-08T00:27:25.209Z,1007.72
2016-06-08T00:28:25.242Z,1007.72
2016-06-08T00:29:25.277Z,1007.72
2016-06-08T00:30:25.295Z,1007.69
2016-06-08T00:31:25.314Z,1007.68
2016-06-08T00:32:25.348Z,1007.7
2016-06-08T00:33:25.381Z,1007.65
2016-06-08T00:34:25.400Z,1007.67
2016-06-08T00:35:25.433Z,1007.63
2016-06-08T00:36:25.467Z,1007.65
2016-06-08T00:37:25.486Z,1007.67
2016-06-08T00:38:25.535Z,1007.63
2016-06-08T00:39:25.555Z,1007.64
2016-06-08T00:40:25.572Z,1007.65
2016-06-08T00:41:26.122Z,1007.6
2016-06-08T00:42:25.641Z,1007.6
2016-06-08T00:43:25.658Z,1007.59
2016-06-08T00:44:25.693Z,1007.6
2016-06-08T00:45:25.726Z,1007.58
2016-06-08T00:46:25.744Z,1007.63
2016-06-08T00:47:25.779Z,1007.59
2016-06-08T00:48:25.797Z,1007.56
2016-06-08T00:49:25.831Z,1007.58
2016-06-08T00:50:25.865Z,1007.56
2016-06-08T00:51:25.882Z,1007.56
2016-06-08T00:52:25.917Z,1007.57
2016-06-08T00:53:25.951Z,1007.55
2016-06-08T00:54:25.969Z,1007.54
2016-06-08T00:55:26.004Z,1007.56
2016-06-08T00:56:26.037Z,1007.54
2016-06-08T00:57:26.071Z,1007.54
2016-06-08T00:58:26.090Z,1007.58
2016-06-08T00:59:26.123Z,1007.54
2016-06-08T01:00:26.142Z,1007.55
2016-06-08T01:01:26.175Z,1007.56
2016-06-08T01:02:26.209Z,1007.56
2016-06-08T01:03:26.228Z,1007.58
2016-06-08T01:04:26.262Z,1007.58
2016-06-08T01:05:26.280Z,1007.6
2016-06-08T01:06:26.314Z,1007.61
2016-06-08T01:07:26.347Z,1007.55
2016-06-08T01:08:26.366Z,1007.57
2016-06-08T01:09:26.400Z,1007.52
2016-06-08T01:10:26.433Z,1007.51
2016-06-08T01:11:26.625Z,1007.5
2016-06-08T01:12:26.486Z,1007.52
2016-06-08T01:13:26.505Z,1007.51
2016-06-08T01:14:26.539Z,1007.55
2016-06-08T01:15:26.557Z,1007.54
2016-06-08T01:16:26.591Z,1007.55
2016-06-08T01:17:26.624Z,1007.54
2016-06-08T01:18:26.643Z,1007.54
2016-06-08T01:19:26.677Z,1007.53
2016-06-08T01:20:26.711Z,1007.52
2016-06-08T01:21:26.729Z,1007.52
2016-06-08T01:22:26.763Z,1007.56
2016-06-08T01:23:26.782Z,1007.52
2016-06-08T01:24:26.815Z,1007.49
2016-06-08T01:25:26.849Z,1007.5
2016-06-08T01:26:26.867Z,1007.47
2016-06-08T01:27:26.902Z,1007.46
2016-06-08T01:28:26.936Z,1007.45
2016-06-08T01:29:26.954Z,1007.44
2016-06-08T01:30:26.988Z,1007.43
2016-06-08T01:31:27.022Z,1007.4
2016-06-08T01:32:27.040Z,1007.4
2016-06-08T01:33:27.074Z,1007.4
2016-06-08T01:34:27.092Z,1007.36
2016-06-08T01:35:27.126Z,1007.34
2016-06-08T01:36:27.145Z,1007.31
2016-06-08T01:37:27.178Z,1007.32
2016-06-08T01:38:27.213Z,1007.3
2016-06-08T01:39:27.230Z,1007.28
2016-06-08T01:40:27.264Z,1007.24
2016-06-08T01:41:27.502Z,1007.22
2016-06-08T01:42:27.316Z,1007.2
2016-06-08T01:43:27.352Z,1007.21
2016-06-08T01:44:27.369Z,1007.19
2016-06-08T01:45:27.403Z,1007.2
2016-06-08T01:46:27.438Z,1007.21
2016-06-08T01:47:27.455Z,1007.19
2016-06-08T01:48:27.490Z,1007.2
2016-06-08T01:49:27.507Z,1007.19
2016-06-08T01:50:27.541Z,1007.19
2016-06-08T01:51:27.576Z,1007.24
2016-06-08T01:52:27.594Z,1007.23
2016-06-08T01:53:27.628Z,1007.21
2016-06-08T01:54:27.646Z,1007.22
2016-06-08T01:55:27.679Z,1007.23
2016-06-08T01:56:27.698Z,1007.27
2016-06-08T01:57:27.732Z,1007.24
2016-06-08T01:58:27.767Z,1007.21
2016-06-08T01:59:27.785Z,1007.23
2016-06-08T02:00:27.818Z,1007.18
2016-06-08T02:01:27.837Z,1007.18
2016-06-08T02:02:27.871Z,1007.16
2016-06-08T02:03:27.905Z,1007.18
2016-06-08T02:04:27.923Z,1007.15
2016-06-08T02:05:27.956Z,1007.16
2016-06-08T02:06:27.975Z,1007.13
2016-06-08T02:07:28.009Z,1007.11
2016-06-08T02:08:28.044Z,1007.11
2016-06-08T02:09:28.061Z,1007.11
2016-06-08T02:10:28.095Z,1007.12
2016-06-08T02:11:28.113Z,1007.1
2016-06-08T02:12:28.148Z,1007.08
2016-06-08T02:13:28.166Z,1007.12
2016-06-08T02:14:28.247Z,1007.12
2016-06-08T02:15:28.234Z,1007.1
2016-06-08T02:16:28.252Z,1007.11
2016-06-08T02:17:28.286Z,1007.11
2016-06-08T02:18:28.305Z,1007.1
2016-06-08T02:19:28.338Z,1007.11
2016-06-08T02:20:28.419Z,1007.1
2016-06-08T02:21:28.390Z,1007.1
2016-06-08T02:22:28.424Z,1007.11
2016-06-08T02:23:28.443Z,1007.12
2016-06-08T02:24:28.477Z,1007.13
2016-06-08T02:25:28.495Z,1007.14
2016-06-08T02:26:28.529Z,1007.14
2016-06-08T02:27:28.547Z,1007.13
2016-06-08T02:28:28.581Z,1007.17
2016-06-08T02:29:28.600Z,1007.13
2016-06-08T02:30:28.633Z,1007.17
2016-06-08T02:31:28.668Z,1007.12
2016-06-08T02:32:28.686Z,1007.15
2016-06-08T02:33:28.720Z,1007.14
2016-06-08T02:34:28.739Z,1007.14
2016-06-08T02:35:28.772Z,1007.15
2016-06-08T02:36:28.790Z,1007.13
2016-06-08T02:37:28.825Z,1007.14
2016-06-08T02:38:28.858Z,1007.14
2016-06-08T02:39:28.892Z,1007.12
2016-06-08T02:40:28.911Z,1007.13
2016-06-08T02:41:28.928Z,1007.09
2016-06-08T02:42:29.166Z,1007.13
2016-06-08T02:43:28.980Z,1007.14
2016-06-08T02:44:29.015Z,1007.1
2016-06-08T02:45:29.034Z,1007.15
2016-06-08T02:46:29.066Z,1007.18
2016-06-08T02:47:29.102Z,1007.14
2016-06-08T02:48:29.119Z,1007.15
2016-06-08T02:49:29.154Z,1007.15
2016-06-08T02:50:29.172Z,1007.16
2016-06-08T02:51:29.205Z,1007.17
2016-06-08T02:52:29.224Z,1007.17
2016-06-08T02:53:29.258Z,1007.2
2016-06-08T02:54:29.276Z,1007.18
2016-06-08T02:55:29.310Z,1007.25
2016-06-08T02:56:29.344Z,1007.18
2016-06-08T02:57:29.362Z,1007.23
2016-06-08T02:58:29.396Z,1007.16
2016-06-08T02:59:29.414Z,1007.19
2016-06-08T03:00:29.448Z,1007.16
2016-06-08T03:01:29.468Z,1007.14
2016-06-08T03:02:29.500Z,1007.16
2016-06-08T03:03:29.520Z,1007.13
2016-06-08T03:04:29.553Z,1007.14
2016-06-08T03:05:29.572Z,1007.14
2016-06-08T03:06:29.606Z,1007.16
2016-06-08T03:07:29.639Z,1007.15
2016-06-08T03:08:29.658Z,1007.13
2016-06-08T03:09:29.692Z,1007.15
2016-06-08T03:10:29.710Z,1007.16
2016-06-08T03:11:29.744Z,1007.16
2016-06-08T03:12:29.778Z,1007.16
2016-06-08T03:13:29.796Z,1007.18
2016-06-08T03:14:29.814Z,1007.16
2016-06-08T03:15:29.848Z,1007.11
2016-06-08T03:16:29.866Z,1007.13
2016-06-08T03:17:29.901Z,1007.13
2016-06-08T03:18:29.919Z,1007.11
2016-06-08T03:19:29.969Z,1007.08
2016-06-08T03:20:29.971Z,1007.11
2016-06-08T03:21:30.005Z,1007.09
2016-06-08T03:22:30.038Z,1007.09
2016-06-08T03:23:30.057Z,1007.05
2016-06-08T03:24:30.091Z,1007.04
2016-06-08T03:25:30.110Z,1007.08
2016-06-08T03:26:30.160Z,1007.08
2016-06-08T03:27:30.162Z,1007.09
2016-06-08T03:28:30.196Z,1007.12
2016-06-08T03:29:30.214Z,1007.12
2016-06-08T03:30:30.248Z,1007.11
2016-06-08T03:31:30.266Z,1007.14
2016-06-08T03:32:30.300Z,1007.12
2016-06-08T03:33:30.319Z,1007.08
2016-06-08T03:34:30.353Z,1007.08
2016-06-08T03:35:30.371Z,1007.08
2016-06-08T03:36:30.405Z,1007.07
2016-06-08T03:37:30.439Z,1007.07
2016-06-08T03:38:30.457Z,1007.06
2016-06-08T03:39:30.491Z,1007.05
2016-06-08T03:40:30.525Z,1007.06
2016-06-08T03:41:30.544Z,1007.09
2016-06-08T03:42:31.109Z,1007.08
2016-06-08T03:43:30.595Z,1007.08
2016-06-08T03:44:30.614Z,1007.1
2016-06-08T03:45:30.648Z,1007.06
2016-06-08T03:46:30.666Z,1007.05
2016-06-08T03:47:30.699Z,1007.08
2016-06-08T03:48:30.719Z,1007.09
2016-06-08T03:49:30.752Z,1007.05
2016-06-08T03:50:30.771Z,1007.05
2016-06-08T03:51:30.804Z,1007.02
2016-06-08T03:52:30.823Z,1007.07
2016-06-08T03:53:30.857Z,1007.06
2016-06-08T03:54:30.875Z,1007.04
2016-06-08T03:55:30.909Z,1007.08
2016-06-08T03:56:31.162Z,1007.07
2016-06-08T03:57:30.976Z,1007.06
2016-06-08T03:58:30.996Z,1007.09
2016-06-08T03:59:31.014Z,1007.08
2016-06-08T04:00:31.032Z,1007.09
2016-06-08T04:01:31.065Z,1007.1
2016-06-08T04:02:31.084Z,1007.1
2016-06-08T04:03:31.118Z,1007.11
2016-06-08T04:04:31.136Z,1007.1
2016-06-08T04:05:31.170Z,1007.08
2016-06-08T04:06:31.189Z,1007.07
2016-06-08T04:07:31.223Z,1007.1
2016-06-08T04:08:31.241Z,1007.09
2016-06-08T04:09:31.275Z,1007.14
2016-06-08T04:10:31.293Z,1007.12
2016-06-08T04:11:31.327Z,1007.13
2016-06-08T04:12:32.033Z,1007.08
2016-06-08T04:13:31.379Z,1007.11
2016-06-08T04:14:31.414Z,1007.11
2016-06-08T04:15:31.432Z,1007.1
2016-06-08T04:16:31.466Z,1007.07
2016-06-08T04:17:31.499Z,1007.08
2016-06-08T04:18:31.518Z,1007.14
2016-06-08T04:19:31.536Z,1007.13
2016-06-08T04:20:31.569Z,1007.11
2016-06-08T04:21:31.588Z,1007.11
2016-06-08T04:22:31.622Z,1007.11
2016-06-08T04:23:31.641Z,1007.08
2016-06-08T04:24:31.659Z,1007.13
2016-06-08T04:25:31.693Z,1007.13
2016-06-08T04:26:31.727Z,1007.15
2016-06-08T04:27:32.370Z,1007.15
2016-06-08T04:28:31.779Z,1007.12
2016-06-08T04:29:31.797Z,1007.09
2016-06-08T04:30:31.832Z,1007.14
2016-06-08T04:31:31.850Z,1007.15
2016-06-08T04:32:31.884Z,1007.14
2016-06-08T04:33:32.012Z,1007.15
2016-06-08T04:34:32.029Z,1007.18
2016-06-08T04:35:32.064Z,1007.17
2016-06-08T04:36:32.066Z,1007.15
2016-06-08T04:37:32.209Z,1007.16
2016-06-08T04:38:32.072Z,1007.16
2016-06-08T04:39:32.090Z,1007.17
2016-06-08T04:40:32.092Z,1007.2
2016-06-08T04:41:32.220Z,1007.18
2016-06-08T04:42:32.364Z,1007.16
2016-06-08T04:43:32.241Z,1007.17
2016-06-08T04:44:32.181Z,1007.16
2016-06-08T04:45:32.293Z,1007.16
2016-06-08T04:46:32.328Z,1007.14
2016-06-08T04:47:32.347Z,1007.14
2016-06-08T04:48:32.349Z,1007.12
2016-06-08T04:49:32.366Z,1007.12
2016-06-08T04:50:32.354Z,1007.11
2016-06-08T04:51:32.372Z,1007.1
2016-06-08T04:52:32.405Z,1007.09
2016-06-08T04:53:32.425Z,1007.07
2016-06-08T04:54:32.443Z,1007.11
2016-06-08T04:55:32.477Z,1007.13
2016-06-08T04:56:32.510Z,1007.12
2016-06-08T04:57:32.529Z,1007.09
2016-06-08T04:58:32.985Z,1007.11
2016-06-08T04:59:32.581Z,1007.09
2016-06-08T05:00:32.615Z,1007.07
2016-06-08T05:01:32.633Z,1007.09
2016-06-08T05:02:32.667Z,1007.04
2016-06-08T05:03:32.686Z,1007.05
2016-06-08T05:04:32.720Z,1007.03
2016-06-08T05:05:32.738Z,1007.03
2016-06-08T05:06:32.775Z,1007.03
2016-06-08T05:07:32.803Z,1007.04
2016-06-08T05:08:32.833Z,1007.03
2016-06-08T05:09:32.876Z,1007.06
2016-06-08T05:10:32.921Z,1007.04
2016-06-08T05:11:32.947Z,1007.04
2016-06-08T05:12:33.063Z,1007.06
2016-06-08T05:13:33.007Z,1007.04
2016-06-08T05:14:33.029Z,1007.03
2016-06-08T05:15:33.067Z,1007.04
2016-06-08T05:16:33.104Z,1007.01
2016-06-08T05:17:33.124Z,1007.01
2016-06-08T05:18:33.159Z,1007
2016-06-08T05:19:33.178Z,1007
2016-06-08T05:20:33.198Z,1007
2016-06-08T05:21:33.249Z,1006.99
2016-06-08T05:22:33.251Z,1006.95
2016-06-08T05:23:33.286Z,1006.96
2016-06-08T05:24:33.305Z,1006.95
2016-06-08T05:25:33.355Z,1006.97
2016-06-08T05:26:33.358Z,1007.01
2016-06-08T05:27:34.001Z,1006.97
2016-06-08T05:28:33.411Z,1006.99
2016-06-08T05:29:33.445Z,1006.97
2016-06-08T05:30:33.479Z,1006.96
2016-06-08T05:31:33.498Z,1006.94
2016-06-08T05:32:33.516Z,1006.93
2016-06-08T05:33:33.551Z,1006.95
2016-06-08T05:34:33.568Z,1006.95
2016-06-08T05:35:33.602Z,1006.94
2016-06-08T05:36:33.667Z,1006.94
2016-06-08T05:37:33.655Z,1006.92
2016-06-08T05:38:33.673Z,1006.94
2016-06-08T05:39:33.706Z,1006.93
2016-06-08T05:40:33.726Z,1006.88
2016-06-08T05:41:33.759Z,1006.92
2016-06-08T05:42:33.778Z,1006.93
2016-06-08T05:43:33.811Z,1006.89
2016-06-08T05:44:33.830Z,1006.93
2016-06-08T05:45:33.864Z,1006.89
2016-06-08T05:46:33.882Z,1006.9
2016-06-08T05:47:33.916Z,1006.91
2016-06-08T05:48:33.934Z,1006.86
2016-06-08T05:49:33.969Z,1006.86
2016-06-08T05:50:33.986Z,1006.85
2016-06-08T05:51:34.020Z,1006.88
2016-06-08T05:52:34.039Z,1006.85
2016-06-08T05:53:34.072Z,1006.84
2016-06-08T05:54:34.107Z,1006.8
2016-06-08T05:55:34.124Z,1006.83
2016-06-08T05:56:34.144Z,1006.83
2016-06-08T05:57:34.193Z,1006.81
2016-06-08T05:58:34.196Z,1006.82
2016-06-08T05:59:34.229Z,1006.79
2016-06-08T06:00:34.248Z,1006.79
2016-06-08T06:01:34.282Z,1006.77
2016-06-08T06:02:34.299Z,1006.75
2016-06-08T06:03:34.334Z,1006.78
2016-06-08T06:04:34.351Z,1006.74
2016-06-08T06:05:34.387Z,1006.75
2016-06-08T06:06:34.405Z,1006.75
2016-06-08T06:07:34.438Z,1006.73
2016-06-08T06:08:34.456Z,1006.77
2016-06-08T06:09:34.490Z,1006.76
2016-06-08T06:10:34.509Z,1006.76
2016-06-08T06:11:34.542Z,1006.72
2016-06-08T06:12:34.576Z,1006.73
2016-06-08T06:13:35.173Z,1006.71
2016-06-08T06:14:34.614Z,1006.73
2016-06-08T06:15:34.648Z,1006.71
2016-06-08T06:16:34.666Z,1006.73
2016-06-08T06:17:34.700Z,1006.72
2016-06-08T06:18:34.717Z,1006.71
2016-06-08T06:19:34.752Z,1006.7
2016-06-08T06:20:34.770Z,1006.72
2016-06-08T06:21:34.804Z,1006.72
2016-06-08T06:22:34.822Z,1006.73
2016-06-08T06:23:34.856Z,1006.71
2016-06-08T06:24:34.875Z,1006.71
2016-06-08T06:25:34.908Z,1006.64
2016-06-08T06:26:34.927Z,1006.67
2016-06-08T06:27:34.961Z,1006.64
2016-06-08T06:28:34.994Z,1006.63
2016-06-08T06:29:35.013Z,1006.64
2016-06-08T06:30:35.031Z,1006.6
2016-06-08T06:31:35.065Z,1006.62
2016-06-08T06:32:35.085Z,1006.58
2016-06-08T06:33:35.118Z,1006.58
2016-06-08T06:34:35.135Z,1006.59
2016-06-08T06:35:35.171Z,1006.61
2016-06-08T06:36:35.204Z,1006.61
2016-06-08T06:37:35.238Z,1006.63
2016-06-08T06:38:35.256Z,1006.65
2016-06-08T06:39:35.274Z,1006.61
2016-06-08T06:40:35.309Z,1006.6
2016-06-08T06:41:35.326Z,1006.58
2016-06-08T06:42:35.361Z,1006.59
2016-06-08T06:43:35.957Z,1006.56
2016-06-08T06:44:35.413Z,1006.6
2016-06-08T06:45:35.431Z,1006.57
2016-06-08T06:46:35.465Z,1006.56
2016-06-08T06:47:35.500Z,1006.55
2016-06-08T06:48:35.517Z,1006.52
2016-06-08T06:49:35.536Z,1006.51
2016-06-08T06:50:35.569Z,1006.51
2016-06-08T06:51:35.588Z,1006.48
2016-06-08T06:52:35.622Z,1006.48
2016-06-08T06:53:35.656Z,1006.48
2016-06-08T06:54:35.675Z,1006.46
2016-06-08T06:55:35.724Z,1006.47
2016-06-08T06:56:35.727Z,1006.46
2016-06-08T06:57:35.760Z,1006.48
2016-06-08T06:58:35.779Z,1006.47
2016-06-08T06:59:35.813Z,1006.46
2016-06-08T07:00:35.830Z,1006.47
2016-06-08T07:01:35.865Z,1006.46
2016-06-08T07:02:35.883Z,1006.45
2016-06-08T07:03:35.918Z,1006.43
2016-06-08T07:04:35.936Z,1006.47
2016-06-08T07:05:35.968Z,1006.43
2016-06-08T07:06:36.019Z,1006.47
2016-06-08T07:07:36.022Z,1006.43
2016-06-08T07:08:36.056Z,1006.43
2016-06-08T07:09:36.074Z,1006.42
2016-06-08T07:10:36.107Z,1006.45
2016-06-08T07:11:36.126Z,1006.42
2016-06-08T07:12:36.160Z,1006.4
2016-06-08T07:13:36.287Z,1006.45
2016-06-08T07:14:36.212Z,1006.43
2016-06-08T07:15:36.245Z,1006.39
2016-06-08T07:16:36.264Z,1006.43
2016-06-08T07:17:36.299Z,1006.42
2016-06-08T07:18:36.317Z,1006.38
2016-06-08T07:19:36.340Z,1006.43
2016-06-08T07:20:36.373Z,1006.4
2016-06-08T07:21:36.409Z,1006.4
2016-06-08T07:22:36.423Z,1006.39
2016-06-08T07:23:36.446Z,1006.38
2016-06-08T07:24:36.466Z,1006.39
2016-06-08T07:25:36.500Z,1006.39
2016-06-08T07:26:36.534Z,1006.4
2016-06-08T07:27:36.553Z,1006.41
2016-06-08T07:28:36.587Z,1006.42
2016-06-08T07:29:36.620Z,1006.41
2016-06-08T07:30:36.639Z,1006.38
2016-06-08T07:31:36.672Z,1006.38
2016-06-08T07:32:36.706Z,1006.39
2016-06-08T07:33:36.725Z,1006.38
2016-06-08T07:34:36.759Z,1006.39
2016-06-08T07:35:36.783Z,1006.41
2016-06-08T07:36:36.801Z,1006.37
2016-06-08T07:37:36.836Z,1006.34
2016-06-08T07:38:36.870Z,1006.38
2016-06-08T07:39:36.888Z,1006.36
2016-06-08T07:40:36.922Z,1006.39
2016-06-08T07:41:36.945Z,1006.37
2016-06-08T07:42:36.963Z,1006.38
2016-06-08T07:43:36.997Z,1006.41
2016-06-08T07:44:37.031Z,1006.43
2016-06-08T07:45:37.065Z,1006.43
2016-06-08T07:46:37.099Z,1006.41
2016-06-08T07:47:37.101Z,1006.41
2016-06-08T07:48:37.135Z,1006.42
2016-06-08T07:49:37.169Z,1006.43
2016-06-08T07:50:37.188Z,1006.45
2016-06-08T07:51:37.232Z,1006.46
2016-06-08T07:52:37.251Z,1006.46
2016-06-08T07:53:37.269Z,1006.45
2016-06-08T07:54:37.303Z,1006.45
2016-06-08T07:55:37.321Z,1006.48
2016-06-08T07:56:37.357Z,1006.44
2016-06-08T07:57:37.375Z,1006.43
2016-06-08T07:58:37.737Z,1006.44
2016-06-08T07:59:37.443Z,1006.46
2016-06-08T08:00:37.461Z,1006.44
2016-06-08T08:01:37.495Z,1006.39
2016-06-08T08:02:37.530Z,1006.41
2016-06-08T08:03:37.548Z,1006.45
2016-06-08T08:04:37.581Z,1006.4
2016-06-08T08:05:37.600Z,1006.41
2016-06-08T08:06:37.650Z,1006.38
2016-06-08T08:07:37.669Z,1006.39
2016-06-08T08:08:37.687Z,1006.35
2016-06-08T08:09:37.720Z,1006.39
2016-06-08T08:10:37.755Z,1006.35
2016-06-08T08:11:37.775Z,1006.34
2016-06-08T08:12:37.810Z,1006.28
2016-06-08T08:13:37.828Z,1006.31
2016-06-08T08:14:37.854Z,1006.3
2016-06-08T08:15:37.950Z,1006.34
2016-06-08T08:16:37.921Z,1006.31
2016-06-08T08:17:37.940Z,1006.31
2016-06-08T08:18:37.974Z,1006.3
2016-06-08T08:19:38.008Z,1006.24
2016-06-08T08:20:38.026Z,1006.24
2016-06-08T08:21:38.060Z,1006.26
2016-06-08T08:22:38.093Z,1006.23
2016-06-08T08:23:38.113Z,1006.26
2016-06-08T08:24:38.147Z,1006.24
2016-06-08T08:25:38.179Z,1006.25
2016-06-08T08:26:38.199Z,1006.23
2016-06-08T08:27:38.232Z,1006.24
2016-06-08T08:28:38.267Z,1006.23
2016-06-08T08:29:38.285Z,1006.26
2016-06-08T08:30:38.318Z,1006.21
2016-06-08T08:31:38.353Z,1006.27
2016-06-08T08:32:38.370Z,1006.23
2016-06-08T08:33:38.405Z,1006.3
2016-06-08T08:34:38.439Z,1006.25
2016-06-08T08:35:38.456Z,1006.28
2016-06-08T08:36:38.491Z,1006.24
2016-06-08T08:37:38.525Z,1006.24
2016-06-08T08:38:38.559Z,1006.26
2016-06-08T08:39:38.578Z,1006.29
2016-06-08T08:40:38.611Z,1006.25
2016-06-08T08:41:38.630Z,1006.24
2016-06-08T08:42:38.680Z,1006.23
2016-06-08T08:43:39.276Z,1006.24
2016-06-08T08:44:38.747Z,1006.23
2016-06-08T08:45:38.750Z,1006.26
2016-06-08T08:46:38.830Z,1006.25
2016-06-08T08:47:39.177Z,1006.24
2016-06-08T08:48:38.835Z,1006.28
2016-06-08T08:49:38.869Z,1006.26
2016-06-08T08:50:38.919Z,1006.26
2016-06-08T08:51:38.937Z,1006.28
2016-06-08T08:52:38.956Z,1006.24
2016-06-08T08:53:38.990Z,1006.24
2016-06-08T08:54:39.023Z,1006.23
2016-06-08T08:55:39.057Z,1006.26
2016-06-08T08:56:39.076Z,1006.26
2016-06-08T08:57:39.110Z,1006.24
2016-06-08T08:58:39.144Z,1006.25
2016-06-08T08:59:39.304Z,1006.23
2016-06-08T09:00:39.195Z,1006.23
2016-06-08T09:01:39.231Z,1006.26
2016-06-08T09:02:39.265Z,1006.23
2016-06-08T09:03:39.282Z,1006.22
2016-06-08T09:04:39.317Z,1006.16
2016-06-08T09:05:39.366Z,1006.21
2016-06-08T09:06:39.384Z,1006.19
2016-06-08T09:07:39.418Z,1006.17
2016-06-08T09:08:39.436Z,1006.13
2016-06-08T09:09:39.470Z,1006.14
2016-06-08T09:10:39.505Z,1006.14
2016-06-08T09:11:39.538Z,1006.09
2016-06-08T09:12:39.572Z,1006.1
2016-06-08T09:13:39.591Z,1006.09
2016-06-08T09:14:39.703Z,1006.11
2016-06-08T09:15:39.658Z,1006.08
2016-06-08T09:16:39.692Z,1006.06
2016-06-08T09:17:39.727Z,1006.07
2016-06-08T09:18:39.744Z,1006.11
2016-06-08T09:19:39.779Z,1006.07
2016-06-08T09:20:39.813Z,1006.05
2016-06-08T09:21:39.847Z,1006.04
2016-06-08T09:22:39.880Z,1006.02
2016-06-08T09:23:39.899Z,1005.98
2016-06-08T09:24:39.932Z,1005.98
2016-06-08T09:25:39.966Z,1005.99
2016-06-08T09:26:40.001Z,1006.02
2016-06-08T09:27:40.035Z,1005.98
2016-06-08T09:28:40.053Z,1005.98
2016-06-08T09:29:40.086Z,1006.02
2016-06-08T09:30:40.121Z,1006
2016-06-08T09:31:40.154Z,1005.99
2016-06-08T09:32:40.189Z,1006.01
2016-06-08T09:33:40.222Z,1006.02
2016-06-08T09:34:40.256Z,1005.96
2016-06-08T09:35:40.275Z,1005.94
2016-06-08T09:36:40.308Z,1005.92
2016-06-08T09:37:40.342Z,1005.88
2016-06-08T09:38:40.376Z,1005.9
2016-06-08T09:39:40.411Z,1005.94
2016-06-08T09:40:40.445Z,1005.9
2016-06-08T09:41:40.478Z,1005.89
2016-06-08T09:42:40.497Z,1005.89
2016-06-08T09:43:40.547Z,1005.9
2016-06-08T09:44:40.565Z,1005.83
2016-06-08T09:45:40.599Z,1005.89
2016-06-08T09:46:40.633Z,1005.82
2016-06-08T09:47:40.666Z,1005.85
2016-06-08T09:48:40.700Z,1005.87
2016-06-08T09:49:40.735Z,1005.79
2016-06-08T09:50:40.768Z,1005.82
2016-06-08T09:51:40.818Z,1005.83
2016-06-08T09:52:40.820Z,1005.83
2016-06-08T09:53:40.855Z,1005.8
2016-06-08T09:54:40.888Z,1005.8
2016-06-08T09:55:40.922Z,1005.83
2016-06-08T09:56:40.956Z,1005.83
2016-06-08T09:57:40.990Z,1005.79
2016-06-08T09:58:41.024Z,1005.77
2016-06-08T09:59:41.057Z,1005.76
2016-06-08T10:00:41.092Z,1005.8
2016-06-08T10:01:41.126Z,1005.77
2016-06-08T10:02:41.145Z,1005.79
2016-06-08T10:03:41.178Z,1005.78
2016-06-08T10:04:41.212Z,1005.79
2016-06-08T10:05:41.246Z,1005.78
2016-06-08T10:06:41.281Z,1005.8
2016-06-08T10:07:41.315Z,1005.76
2016-06-08T10:08:41.347Z,1005.8
2016-06-08T10:09:41.382Z,1005.74
2016-06-08T10:10:41.416Z,1005.71
2016-06-08T10:11:41.450Z,1005.75
2016-06-08T10:12:41.484Z,1005.77
2016-06-08T10:13:41.517Z,1005.72
2016-06-08T10:14:42.583Z,1005.76
2016-06-08T10:15:41.633Z,1005.72
2016-06-08T10:16:41.620Z,1005.69
2016-06-08T10:17:41.653Z,1005.72
2016-06-08T10:18:41.687Z,1005.76
2016-06-08T10:19:41.721Z,1005.71
2016-06-08T10:20:41.755Z,1005.69
2016-06-08T10:21:41.789Z,1005.69
2016-06-08T10:22:41.823Z,1005.7
2016-06-08T10:23:41.857Z,1005.69
2016-06-08T10:24:41.890Z,1005.7
2016-06-08T10:25:41.956Z,1005.69
2016-06-08T10:26:41.959Z,1005.67
2016-06-08T10:27:41.993Z,1005.66
2016-06-08T10:28:42.027Z,1005.68
2016-06-08T10:29:42.060Z,1005.66
2016-06-08T10:30:42.095Z,1005.64
2016-06-08T10:31:42.128Z,1005.6
2016-06-08T10:32:42.163Z,1005.59
2016-06-08T10:33:42.196Z,1005.57
2016-06-08T10:34:42.231Z,1005.56
2016-06-08T10:35:42.264Z,1005.55
2016-06-08T10:36:42.298Z,1005.53
2016-06-08T10:37:42.332Z,1005.53
2016-06-08T10:38:42.367Z,1005.54
2016-06-08T10:39:42.400Z,1005.54
2016-06-08T10:40:42.434Z,1005.52
2016-06-08T10:41:42.468Z,1005.51
2016-06-08T10:42:42.502Z,1005.49
2016-06-08T10:43:43.458Z,1005.47
2016-06-08T10:44:42.570Z,1005.46
2016-06-08T10:45:42.603Z,1005.48
2016-06-08T10:46:42.638Z,1005.43
2016-06-08T10:47:42.671Z,1005.43
2016-06-08T10:48:42.705Z,1005.39
2016-06-08T10:49:42.739Z,1005.41
2016-06-08T10:50:42.774Z,1005.43
2016-06-08T10:51:42.807Z,1005.43
2016-06-08T10:52:44.107Z,1005.44
2016-06-08T10:53:42.907Z,1005.41
2016-06-08T10:54:42.910Z,1005.34
2016-06-08T10:55:42.958Z,1005.37
2016-06-08T10:56:42.992Z,1005.38
2016-06-08T10:57:43.026Z,1005.28
2016-06-08T10:58:43.060Z,1005.33
2016-06-08T10:59:43.094Z,1005.3
2016-06-08T11:00:43.129Z,1005.28
2016-06-08T11:01:43.163Z,1005.27
2016-06-08T11:02:43.196Z,1005.21
2016-06-08T11:03:43.262Z,1005.23
2016-06-08T11:04:43.264Z,1005.23
2016-06-08T11:05:43.298Z,1005.18
2016-06-08T11:06:43.332Z,1005.14
2016-06-08T11:07:43.366Z,1005.18
2016-06-08T11:08:43.400Z,1005.2
2016-06-08T11:09:43.450Z,1005.12
2016-06-08T11:10:43.483Z,1005.12
2016-06-08T11:11:43.517Z,1005.11
2016-06-08T11:12:43.551Z,1005.08
2016-06-08T11:13:43.600Z,1005.08
2016-06-08T11:14:43.822Z,1005.12
2016-06-08T11:15:43.966Z,1005.07
2016-06-08T11:16:43.686Z,1005.07
2016-06-08T11:17:43.736Z,1005.09
2016-06-08T11:18:43.770Z,1005.08
2016-06-08T11:19:43.804Z,1005.05
2016-06-08T11:20:43.839Z,1005.03
2016-06-08T11:21:43.873Z,1005.06
2016-06-08T11:22:43.905Z,1005.03
2016-06-08T11:23:43.941Z,1005.03
2016-06-08T11:24:43.974Z,1004.96
2016-06-08T11:25:44.024Z,1004.95
2016-06-08T11:26:44.058Z,1004.97
2016-06-08T11:27:44.091Z,1004.93
2016-06-08T11:28:44.126Z,1004.94
2016-06-08T11:29:44.160Z,1004.96
2016-06-08T11:30:44.193Z,1004.96
2016-06-08T11:31:44.227Z,1004.91
2016-06-08T11:32:44.277Z,1004.93
2016-06-08T11:33:44.310Z,1004.95
2016-06-08T11:34:44.345Z,1004.92
2016-06-08T11:35:44.379Z,1004.87
2016-06-08T11:36:44.412Z,1004.86
2016-06-08T11:37:44.446Z,1004.87
2016-06-08T11:38:44.495Z,1004.86
2016-06-08T11:39:44.530Z,1004.83
2016-06-08T11:40:44.565Z,1004.83
2016-06-08T11:41:44.598Z,1004.9
2016-06-08T11:42:44.632Z,1004.84
2016-06-08T11:43:44.681Z,1004.85
2016-06-08T11:44:44.715Z,1004.86
2016-06-08T11:45:44.750Z,1004.83
2016-06-08T11:46:44.784Z,1004.82
2016-06-08T11:47:44.817Z,1004.8
2016-06-08T11:48:44.867Z,1004.77
2016-06-08T11:49:44.900Z,1004.73
2016-06-08T11:50:44.935Z,1004.71
2016-06-08T11:51:44.984Z,1004.69
2016-06-08T11:52:45.002Z,1004.72
2016-06-08T11:53:45.036Z,1004.67
2016-06-08T11:54:45.086Z,1004.72
2016-06-08T11:55:45.119Z,1004.71
2016-06-08T11:56:45.155Z,1004.69
2016-06-08T11:57:45.188Z,1004.7
2016-06-08T11:58:45.221Z,1004.68
2016-06-08T11:59:45.552Z,1004.71
2016-06-08T12:00:45.305Z,1004.64
2016-06-08T12:01:45.339Z,1004.6
2016-06-08T12:02:45.374Z,1004.59
2016-06-08T12:03:45.407Z,1004.58
2016-06-08T12:04:45.456Z,1004.57
2016-06-08T12:05:45.491Z,1004.58
2016-06-08T12:06:45.524Z,1004.55
2016-06-08T12:07:45.574Z,1004.62
2016-06-08T12:08:45.609Z,1004.55